Time;durP1;ratioP1;P1;durP2;ratioP2;P2;SDS_P1;SDS_P2;PMS_P1;PMS_P2;Temp;Humidity;BMP_temperature;BMP_pressure;BME280_temperature;BME280_humidity;BME280_pressure;Samples;Min_cycle;Max_cycle;Signal;HPM_P1;HPM_P2
2022/05/13 00:01:25;;;;;;;4.00;3.60;;;;;;;11.42;71.04;101175.31;4988366;28;20010;-72
2022/05/13 00:03:50;;;;;;;4.93;4.07;;;;;;;11.26;71.28;101175.78;5010178;27;20409;-72
2022/05/13 00:06:16;;;;;;;3.75;3.55;;;;;;;11.33;71.32;101180.41;5015015;28;20013;-73
2022/05/13 00:08:41;;;;;;;4.03;3.55;;;;;;;11.36;71.22;101170.53;5020492;28;20010;-72
2022/05/13 00:11:07;;;;;;;5.07;3.60;;;;;;;11.30;71.38;101177.22;4976248;28;20024;-72
2022/05/13 00:13:32;;;;;;;3.90;3.50;;;;;;;11.28;71.05;101180.00;4992305;28;20147;-73
2022/05/13 00:15:59;;;;;;;5.70;3.78;;;;;;;11.36;71.05;101175.84;4991402;28;20026;-72
2022/05/13 00:18:24;;;;;;;6.25;3.55;;;;;;;11.17;71.66;101175.59;4993331;28;20064;-72
2022/05/13 00:20:50;;;;;;;4.05;3.50;;;;;;;11.33;71.19;101171.63;4990915;28;20254;-72
2022/05/13 00:23:15;;;;;;;4.40;3.50;;;;;;;11.36;70.92;101171.38;4974651;28;20017;-72
2022/05/13 00:25:41;;;;;;;3.95;3.30;;;;;;;11.12;71.59;101169.00;4977499;27;20005;-73
2022/05/13 00:28:07;;;;;;;4.88;3.67;;;;;;;11.17;71.85;101172.13;5006788;28;20040;-73
2022/05/13 00:30:34;;;;;;;4.80;3.75;;;;;;;11.02;72.23;101173.41;5014089;28;20498;-72
2022/05/13 00:33:00;;;;;;;6.63;4.10;;;;;;;10.93;72.82;101175.84;4960523;28;20034;-73
2022/05/13 00:35:25;;;;;;;7.20;4.15;;;;;;;10.90;72.58;101183.19;4977810;28;20114;-72
2022/05/13 00:37:51;;;;;;;4.20;3.50;;;;;;;10.64;73.68;101184.41;4987669;28;21095;-72
2022/05/13 00:40:16;;;;;;;5.90;3.80;;;;;;;10.67;73.22;101177.19;4994162;28;20502;-72
2022/05/13 00:42:42;;;;;;;3.88;3.55;;;;;;;10.67;73.48;101180.66;4976856;28;20073;-72
2022/05/13 00:45:08;;;;;;;7.00;4.07;;;;;;;10.71;73.24;101173.31;4995003;28;19994;-72
2022/05/13 00:47:33;;;;;;;7.75;3.85;;;;;;;10.68;73.31;101182.34;4994752;28;20026;-72
2022/05/13 00:50:02;;;;;;;4.07;3.67;;;;;;;10.59;74.32;101181.31;4979968;28;20018;-72
2022/05/13 00:52:28;;;;;;;5.90;3.70;;;;;;;10.57;74.09;101185.88;4995998;28;20109;-72
2022/05/13 00:54:53;;;;;;;3.80;3.50;;;;;;;10.59;74.41;101183.94;4997048;28;20114;-72
2022/05/13 00:57:19;;;;;;;4.18;3.70;;;;;;;10.63;74.45;101174.78;5000550;28;19997;-73
2022/05/13 00:59:45;;;;;;;4.00;3.80;;;;;;;10.61;74.78;101181.19;4994139;28;20818;-72
2022/05/13 01:02:10;;;;;;;4.57;3.97;;;;;;;10.70;74.93;101180.41;4963554;28;20017;-72
2022/05/13 01:04:37;;;;;;;4.70;3.92;;;;;;;10.68;74.63;101181.53;4977761;28;20021;-72
2022/05/13 01:07:25;;;;;;;4.30;3.80;;;;;;;10.73;74.94;101174.88;4976410;28;20613;-73
2022/05/13 01:09:53;;;;;;;4.35;3.90;;;;;;;10.68;74.79;101181.53;4973793;28;20032;-72
2022/05/13 01:12:21;;;;;;;4.28;3.70;;;;;;;10.75;74.38;101187.97;4978775;28;20432;-72
2022/05/13 01:14:50;;;;;;;3.97;3.67;;;;;;;10.65;74.46;101186.09;4957620;28;20013;-73
2022/05/13 01:20:14;;;;;;;4.40;3.97;;;;;;;10.67;75.11;101191.25;4974122;28;20466;-72
2022/05/13 01:22:50;;;;;;;4.05;3.75;;;;;;;10.60;75.04;101185.63;4977360;28;20021;-72
2022/05/13 01:25:20;;;;;;;3.67;3.47;;;;;;;10.54;75.41;101180.00;4980528;28;20777;-71
2022/05/13 01:27:46;;;;;;;3.50;3.08;;;;;;;10.55;75.58;101179.88;4981279;28;20014;-72
2022/05/13 01:30:23;;;;;;;4.00;3.70;;;;;;;10.53;75.01;101179.16;4997777;28;20470;-72
2022/05/13 01:32:49;;;;;;;4.15;3.75;;;;;;;10.57;75.57;101180.56;4997839;28;20028;-72
2022/05/13 01:35:14;;;;;;;4.32;3.92;;;;;;;10.57;75.16;101177.94;4979834;28;20422;-73
2022/05/13 01:37:40;;;;;;;5.47;3.67;;;;;;;10.51;75.05;101181.09;4971214;28;20016;-72
2022/05/13 01:40:06;;;;;;;3.58;3.28;;;;;;;10.61;75.19;101170.59;4964904;28;20558;-72
2022/05/13 01:42:32;;;;;;;5.32;3.72;;;;;;;10.65;74.55;101183.44;4953560;28;20019;-73
2022/05/13 01:44:57;;;;;;;4.47;3.80;;;;;;;10.57;74.62;101188.50;4972580;28;20033;-71
2022/05/13 01:47:24;;;;;;;5.38;3.65;;;;;;;10.49;74.77;101188.28;4962110;28;20554;-72
2022/05/13 01:49:50;;;;;;;4.28;3.63;;;;;;;10.52;74.75;101184.56;4963738;28;20175;-72
2022/05/13 01:52:15;;;;;;;3.60;3.30;;;;;;;10.43;74.78;101187.00;5014283;28;20021;-71
2022/05/13 01:54:40;;;;;;;5.97;3.78;;;;;;;10.34;75.33;101194.84;4979484;28;20477;-71
2022/05/13 01:57:06;;;;;;;4.00;3.70;;;;;;;10.35;75.29;101188.59;4997613;28;20184;-72
2022/05/13 01:59:31;;;;;;;4.32;3.40;;;;;;;10.34;75.10;101184.25;5013194;28;20140;-72
2022/05/13 02:01:57;;;;;;;4.70;3.33;;;;;;;10.32;75.45;101182.56;4957771;28;20013;-72
2022/05/13 02:04:22;;;;;;;3.22;3.00;;;;;;;10.26;75.68;101193.63;4992399;28;20029;-72
2022/05/13 02:06:47;;;;;;;3.67;3.30;;;;;;;10.16;75.56;101190.03;4963323;28;20009;-72
2022/05/13 02:09:13;;;;;;;5.65;3.90;;;;;;;10.18;75.44;101193.41;4993194;28;21091;-72
2022/05/13 02:11:39;;;;;;;3.67;3.33;;;;;;;10.09;75.40;101189.69;4977257;28;20397;-72
2022/05/13 02:14:05;;;;;;;5.22;3.13;;;;;;;10.06;75.64;101189.09;4980313;28;20009;-72
2022/05/13 02:16:30;;;;;;;4.50;3.60;;;;;;;10.09;75.67;101191.50;4979283;28;20025;-73
2022/05/13 02:18:57;;;;;;;3.95;3.60;;;;;;;9.95;75.76;101185.50;4993923;28;20021;-72
2022/05/13 02:21:22;;;;;;;5.32;3.70;;;;;;;9.91;76.06;101196.44;4957764;28;20018;-72
2022/05/13 02:23:47;;;;;;;3.47;3.17;;;;;;;9.87;76.14;101182.63;4973899;28;20099;-72
2022/05/13 02:26:13;;;;;;;4.72;3.35;;;;;;;9.78;76.39;101188.63;4993173;27;20013;-72
2022/05/13 02:28:39;;;;;;;3.83;3.50;;;;;;;9.74;76.44;101185.41;4998847;27;20047;-72
2022/05/13 02:31:05;;;;;;;3.45;3.22;;;;;;;9.79;75.96;101187.69;4999501;27;20761;-72
2022/05/13 02:33:30;;;;;;;4.85;3.40;;;;;;;9.75;76.54;101195.00;4984559;27;20146;-72
2022/05/13 02:35:56;;;;;;;3.97;3.67;;;;;;;9.82;76.43;101195.38;4974905;28;20794;-74
2022/05/13 02:38:21;;;;;;;3.50;3.30;;;;;;;9.79;76.45;101191.16;4979903;28;20022;-72
2022/05/13 02:43:31;;;;;;;4.03;3.70;;;;;;;9.69;76.69;101184.09;4979383;28;20091;-73
2022/05/13 02:45:58;;;;;;;5.82;3.35;;;;;;;9.71;76.40;101177.69;4962590;28;20136;-72
2022/05/13 02:48:23;;;;;;;4.75;3.50;;;;;;;9.68;76.37;101177.13;4973963;28;20249;-72
2022/05/13 02:50:48;;;;;;;3.90;3.55;;;;;;;9.66;76.95;101181.66;4981205;28;20056;-72
2022/05/13 02:53:14;;;;;;;6.43;3.42;;;;;;;9.55;76.91;101183.34;4981410;28;20129;-73
2022/05/13 02:55:39;;;;;;;3.85;3.50;;;;;;;9.63;77.06;101177.47;4964038;28;20010;-72
2022/05/13 02:58:05;;;;;;;4.75;3.80;;;;;;;9.77;77.62;101179.03;4978735;28;20199;-73
2022/05/13 03:00:31;;;;;;;3.70;3.40;;;;;;;9.79;77.08;101179.75;4987103;28;20302;-73
2022/05/13 03:02:56;;;;;;;4.05;3.60;;;;;;;9.99;77.21;101185.28;4977630;28;20010;-72
2022/05/13 03:05:22;;;;;;;5.68;3.72;;;;;;;10.02;76.62;101179.72;4969450;28;20125;-72
2022/05/13 03:07:47;;;;;;;4.90;3.28;;;;;;;10.14;76.03;101181.41;4959340;28;20916;-73
2022/05/13 03:10:13;;;;;;;3.83;3.03;;;;;;;10.28;74.33;101180.31;4983750;28;20014;-72
2022/05/13 03:12:38;;;;;;;3.40;2.63;;;;;;;10.39;72.91;101187.38;4988483;28;20380;-72
2022/05/13 03:15:04;;;;;;;4.80;2.20;;;;;;;10.70;68.47;101188.34;4991186;28;20117;-72
2022/05/13 03:17:30;;;;;;;7.68;2.00;;;;;;;11.10;65.82;101203.56;4969757;28;20486;-74
2022/05/13 03:19:55;;;;;;;8.40;2.08;;;;;;;11.29;64.63;101204.66;4983946;28;20050;-72
2022/05/13 03:22:21;;;;;;;3.55;1.95;;;;;;;11.49;63.18;101200.31;5001696;28;20817;-72
2022/05/13 03:24:46;;;;;;;8.50;1.90;;;;;;;11.52;63.42;101216.78;5007431;28;20963;-72
2022/05/13 03:27:11;;;;;;;4.40;1.70;;;;;;;11.64;63.07;101217.53;4989745;28;20013;-74
2022/05/13 03:29:37;;;;;;;8.57;1.90;;;;;;;11.74;63.12;101216.75;4974593;28;20173;-73
2022/05/13 03:32:06;;;;;;;3.67;1.60;;;;;;;11.73;62.67;101205.31;4973304;28;20021;-73
2022/05/13 03:34:32;;;;;;;6.43;2.10;;;;;;;11.74;62.95;101203.50;4988807;28;20030;-72
2022/05/13 03:36:57;;;;;;;4.88;1.95;;;;;;;11.76;62.74;101197.09;4974792;28;20074;-72
2022/05/13 03:39:23;;;;;;;6.97;1.85;;;;;;;11.71;62.88;101195.81;4996307;28;20029;-72
2022/05/13 03:41:48;;;;;;;5.88;1.88;;;;;;;11.74;63.38;101184.94;5018116;28;20025;-73
2022/05/13 03:44:14;;;;;;;3.58;1.70;;;;;;;11.78;63.22;101186.34;4989103;27;20540;-73
2022/05/13 03:46:39;;;;;;;3.33;1.52;;;;;;;11.84;62.00;101191.13;4990347;28;20399;-72
2022/05/13 03:49:05;;;;;;;5.40;1.83;;;;;;;11.84;62.30;101194.63;4974641;28;20049;-72
2022/05/13 03:51:30;;;;;;;2.83;1.70;;;;;;;11.89;61.29;101193.34;4975936;28;19998;-72
2022/05/13 03:53:55;;;;;;;4.00;1.73;;;;;;;11.91;61.51;101196.72;4979397;28;20091;-72
2022/05/13 03:56:21;;;;;;;2.35;1.45;;;;;;;11.95;61.59;101199.00;4995759;28;20859;-73
2022/05/13 03:58:46;;;;;;;3.85;1.50;;;;;;;11.90;61.24;101198.56;4978368;28;20409;-72
2022/05/13 04:01:12;;;;;;;5.47;1.65;;;;;;;11.86;60.91;101197.97;4959300;28;20132;-72
2022/05/13 04:03:37;;;;;;;3.15;1.85;;;;;;;11.85;61.48;101188.31;4974991;28;20029;-72
2022/05/13 04:08:56;;;;;;;4.07;1.98;;;;;;;11.83;61.50;101184.97;4977426;28;20032;-73
2022/05/13 04:11:21;;;;;;;5.85;1.90;;;;;;;11.89;62.12;101194.22;4984641;28;20013;-73
2022/05/13 04:16:30;;;;;;;3.75;1.60;;;;;;;11.89;61.59;101193.34;4968615;28;20227;-73
2022/05/13 04:18:58;;;;;;;5.40;1.90;;;;;;;11.96;61.69;101200.69;4941425;28;20846;-74
2022/05/13 04:21:26;;;;;;;3.65;1.60;;;;;;;11.93;61.37;101195.63;4961065;28;20040;-73
2022/05/13 04:23:53;;;;;;;3.83;1.60;;;;;;;11.93;61.90;101195.63;4961417;28;20041;-73
2022/05/13 04:26:18;;;;;;;4.53;1.63;;;;;;;11.98;61.58;101188.13;4963414;28;20033;-74
2022/05/13 04:28:45;;;;;;;4.53;2.08;;;;;;;12.03;61.07;101199.16;4985771;28;20279;-73
2022/05/13 04:31:11;;;;;;;7.60;1.90;;;;;;;12.21;60.65;101203.81;4961268;28;20018;-73
2022/05/13 04:33:36;;;;;;;6.70;2.10;;;;;;;12.17;60.71;101202.44;4960903;28;20030;-73
2022/05/13 04:36:02;;;;;;;5.68;1.65;;;;;;;12.19;60.69;101203.13;4937764;28;20009;-73
2022/05/13 04:38:27;;;;;;;9.02;1.85;;;;;;;12.22;60.72;101213.47;4946542;28;20019;-74
2022/05/13 04:40:53;;;;;;;7.22;2.10;;;;;;;12.14;61.04;101210.63;4941104;28;20025;-73
2022/05/13 04:43:18;;;;;;;6.18;2.25;;;;;;;12.17;61.04;101227.13;4955966;28;21028;-73
2022/05/13 04:45:44;;;;;;;4.65;2.10;;;;;;;12.14;61.06;101221.25;4950226;28;20041;-72
2022/05/13 04:48:21;;;;;;;9.55;2.17;;;;;;;12.25;61.23;101230.94;4972110;28;20022;-73
2022/05/13 04:50:54;;;;;;;5.70;2.10;;;;;;;12.37;61.36;101238.63;4975741;28;20018;-73
2022/05/13 04:53:25;;;;;;;9.60;2.83;;;;;;;12.42;60.34;101234.75;4990642;28;20121;-73
2022/05/13 04:55:51;;;;;;;6.03;2.30;;;;;;;12.48;60.34;101239.47;4968878;28;20878;-73
2022/05/13 04:58:16;;;;;;;6.65;2.60;;;;;;;12.50;59.88;101235.72;4990803;28;20045;-73
2022/05/13 05:00:42;;;;;;;9.23;2.50;;;;;;;12.61;59.60;101237.44;4981279;28;20049;-73
2022/05/13 05:03:08;;;;;;;8.27;2.80;;;;;;;12.59;59.42;101236.72;5009263;27;20014;-73
2022/05/13 05:05:33;;;;;;;4.63;1.75;;;;;;;12.62;60.32;101243.56;4958482;28;20023;-72
2022/05/13 05:07:58;;;;;;;5.20;1.95;;;;;;;12.74;59.82;101246.94;4958935;28;20010;-73
2022/05/13 05:10:25;;;;;;;8.95;2.33;;;;;;;12.80;59.23;101254.34;5009885;28;20460;-73
2022/05/13 05:12:54;;;;;;;6.70;2.45;;;;;;;12.77;59.39;101252.81;4970821;28;20091;-73
2022/05/13 05:15:19;;;;;;;7.40;2.33;;;;;;;12.63;60.24;101248.72;4991371;28;20612;-73
2022/05/13 05:17:45;;;;;;;8.10;2.00;;;;;;;12.66;59.63;101256.44;4976947;28;20922;-74
2022/05/13 05:20:10;;;;;;;4.57;1.92;;;;;;;12.74;59.97;101255.75;4976289;28;20119;-73
2022/05/13 05:22:36;;;;;;;12.38;2.53;;;;;;;12.77;60.00;101244.84;4977011;28;20078;-72
2022/05/13 05:25:02;;;;;;;7.65;2.28;;;;;;;12.69;59.82;101244.69;4978669;28;20029;-73
2022/05/13 05:27:27;;;;;;;6.72;2.42;;;;;;;12.69;60.18;101250.00;4977478;28;19994;-73
2022/05/13 05:29:52;;;;;;;6.63;2.60;;;;;;;12.81;59.39;101261.34;4988988;28;20027;-73
2022/05/13 05:32:18;;;;;;;5.28;2.60;;;;;;;12.71;59.85;101262.16;4990704;28;20814;-72
2022/05/13 05:34:43;;;;;;;12.10;2.50;;;;;;;12.70;59.87;101263.16;4976802;28;20006;-73
2022/05/13 05:37:08;;;;;;;4.60;2.03;;;;;;;12.78;59.21;101269.59;4975702;28;20337;-73
2022/05/13 05:39:34;;;;;;;4.40;2.35;;;;;;;12.82;59.34;101266.53;4993523;28;20033;-72
2022/05/13 05:41:59;;;;;;;6.13;2.40;;;;;;;12.98;59.17;101275.75;4979564;27;20275;-74
2022/05/13 05:44:26;;;;;;;7.13;2.30;;;;;;;13.01;58.98;101275.47;5008432;27;20276;-73
2022/05/13 05:46:51;;;;;;;5.22;2.15;;;;;;;12.95;59.23;101281.34;4960569;28;20101;-73
2022/05/13 05:49:16;;;;;;;5.55;2.03;;;;;;;12.88;59.47;101283.72;4996150;28;20025;-73
2022/05/13 05:51:42;;;;;;;6.57;2.30;;;;;;;13.03;59.33;101279.66;4978109;28;20006;-72
2022/05/13 05:59:35;;;;;;;7.70;2.45;;;;;;;13.01;59.23;101286.09;5014413;28;20025;-73
2022/05/13 06:02:00;;;;;;;4.97;2.05;;;;;;;13.12;58.60;101291.28;4996006;28;20021;-73
2022/05/13 06:04:25;;;;;;;5.88;2.08;;;;;;;13.06;59.19;101292.66;4997486;28;20033;-73
2022/05/13 06:06:51;;;;;;;9.23;2.70;;;;;;;13.15;59.02;101292.81;4979552;28;20056;-73
2022/05/13 06:09:16;;;;;;;6.38;2.47;;;;;;;13.19;59.52;101300.34;4962522;28;21017;-72
2022/05/13 06:11:42;;;;;;;8.82;2.38;;;;;;;13.32;59.18;101300.06;4966220;28;20006;-73
2022/05/13 06:14:09;;;;;;;6.25;2.60;;;;;;;13.32;59.03;101304.56;4993992;28;20033;-73
2022/05/13 06:16:34;;;;;;;7.47;2.42;;;;;;;13.34;59.24;101297.25;4981870;28;21022;-73
2022/05/13 06:19:00;;;;;;;7.00;2.60;;;;;;;13.35;58.83;101293.66;4978268;28;20025;-73
2022/05/13 06:21:30;;;;;;;9.13;2.40;;;;;;;13.38;59.10;101309.31;4964691;28;20072;-70
2022/05/13 06:23:55;;;;;;;8.23;2.70;;;;;;;13.59;58.88;101311.00;4984841;28;20181;-73
2022/05/13 06:26:21;;;;;;;7.80;2.88;;;;;;;13.58;58.16;101304.84;4968056;28;20112;-74
2022/05/13 06:28:46;;;;;;;8.10;2.30;;;;;;;13.71;58.15;101308.03;4985779;28;20082;-72
2022/05/13 06:31:12;;;;;;;10.88;2.75;;;;;;;13.82;58.00;101300.84;4984579;28;20026;-72
2022/05/13 06:33:37;;;;;;;7.25;2.58;;;;;;;13.85;58.16;101305.91;4965365;28;20744;-74
2022/05/13 06:36:03;;;;;;;8.52;3.08;;;;;;;13.92;57.23;101299.03;4980893;28;20029;-73
2022/05/13 06:38:28;;;;;;;7.90;2.97;;;;;;;13.94;57.41;101307.69;5002926;28;20018;-73
2022/05/13 06:40:54;;;;;;;6.55;2.70;;;;;;;14.04;56.68;101308.47;4970740;28;20026;-73
2022/05/13 06:43:20;;;;;;;9.80;2.55;;;;;;;14.04;57.59;101305.81;5023151;28;20083;-73
2022/05/13 06:45:46;;;;;;;7.95;2.90;;;;;;;14.01;56.41;101316.75;5000733;28;20372;-73
2022/05/13 06:48:11;;;;;;;4.97;2.40;;;;;;;14.15;56.72;101330.59;4973267;28;20933;-73
2022/05/13 06:50:37;;;;;;;4.93;2.35;;;;;;;14.21;56.24;101311.38;4989566;28;20025;-73
2022/05/13 06:53:02;;;;;;;5.70;2.53;;;;;;;14.27;56.14;101321.44;4985767;28;20724;-73
2022/05/13 06:55:28;;;;;;;6.45;2.35;;;;;;;14.23;56.08;101323.56;5012866;28;20538;-75
2022/05/13 06:57:53;;;;;;;8.30;2.60;;;;;;;14.38;56.51;101326.56;5026091;28;20476;-73
2022/05/13 07:00:19;;;;;;;6.97;2.35;;;;;;;14.14;56.33;101331.56;5001500;28;20220;-73
2022/05/13 07:02:44;;;;;;;7.88;2.40;;;;;;;14.29;56.97;101324.78;4993078;28;20818;-73
2022/05/13 07:05:11;;;;;;;7.60;2.70;;;;;;;14.38;56.88;101328.38;4981455;28;20036;-73
2022/05/13 07:07:37;;;;;;;5.32;2.30;;;;;;;14.49;56.03;101322.03;4975063;28;20129;-73
2022/05/13 07:10:03;;;;;;;8.50;2.63;;;;;;;14.47;55.06;101330.19;4994203;28;20604;-75
2022/05/13 07:12:29;;;;;;;12.75;2.38;;;;;;;14.56;55.52;101323.13;4994943;28;20090;-73
2022/05/13 07:14:54;;;;;;;7.70;2.47;;;;;;;14.61;55.76;101328.84;4958040;28;20021;-73
2022/05/13 07:17:20;;;;;;;8.38;2.20;;;;;;;14.62;55.48;101333.19;4995171;27;20283;-74
2022/05/13 07:19:45;;;;;;;5.97;2.40;;;;;;;14.75;55.32;101344.34;5001304;27;20823;-74
2022/05/13 07:22:11;;;;;;;6.07;2.45;;;;;;;14.69;54.91;101336.97;5001306;27;20189;-73
2022/05/13 07:24:36;;;;;;;4.95;2.42;;;;;;;14.76;54.87;101335.38;4996154;28;20006;-73
2022/05/13 07:27:02;;;;;;;6.97;2.00;;;;;;;14.74;54.41;101337.34;4961022;28;20001;-73
2022/05/13 07:29:27;;;;;;;8.23;2.33;;;;;;;14.88;54.53;101343.16;4997808;28;20025;-74
2022/05/13 07:31:53;;;;;;;8.02;2.20;;;;;;;15.02;53.09;101345.28;4980067;28;20193;-74
2022/05/13 07:34:18;;;;;;;4.82;2.08;;;;;;;15.28;53.10;101348.06;4993768;28;20921;-73
2022/05/13 07:36:45;;;;;;;6.22;1.90;;;;;;;15.45;52.53;101353.50;4981473;28;20152;-73
2022/05/13 07:41:54;;;;;;;3.88;2.08;;;;;;;15.74;51.94;101352.41;4988853;28;20032;-74
2022/05/13 07:44:19;;;;;;;5.50;2.17;;;;;;;15.80;51.65;101362.50;4952916;28;20041;-73
2022/05/13 07:46:45;;;;;;;11.50;2.10;;;;;;;16.00;52.41;101349.75;4970408;28;20150;-73
2022/05/13 07:49:10;;;;;;;5.90;2.13;;;;;;;16.02;51.63;101358.47;4979028;28;20457;-73
2022/05/13 07:51:35;;;;;;;3.28;1.83;;;;;;;15.98;50.75;101354.44;4947898;28;20457;-73
2022/05/13 07:54:01;;;;;;;5.35;2.00;;;;;;;16.05;51.08;101350.13;4952093;28;20018;-74
2022/05/13 07:56:26;;;;;;;7.55;2.05;;;;;;;16.23;50.31;101346.56;4946823;28;20056;-73
2022/05/13 07:58:52;;;;;;;5.82;1.95;;;;;;;16.32;51.43;101350.94;4995263;28;20106;-74
2022/05/13 08:01:17;;;;;;;8.02;2.17;;;;;;;16.41;51.29;101355.34;4956992;28;20037;-74
2022/05/13 08:03:43;;;;;;;3.30;1.75;;;;;;;16.59;48.39;101359.75;4993699;28;20256;-73
2022/05/13 08:06:09;;;;;;;6.85;2.13;;;;;;;16.64;48.24;101357.44;4975996;28;20001;-73
2022/05/13 08:08:42;;;;;;;4.75;1.80;;;;;;;16.86;48.46;101349.81;4976952;28;20002;-74
2022/05/13 08:11:10;;;;;;;4.45;1.77;;;;;;;16.76;48.53;101350.78;4974950;28;20010;-73
2022/05/13 08:13:36;;;;;;;5.30;1.77;;;;;;;16.71;48.41;101350.44;4972027;28;20029;-74
2022/05/13 08:16:03;;;;;;;3.28;1.60;;;;;;;16.89;47.70;101353.00;4973103;28;20018;-75
2022/05/13 08:18:28;;;;;;;6.85;2.05;;;;;;;16.85;47.64;101350.78;4955644;28;20119;-73
2022/05/13 08:20:54;;;;;;;5.97;2.08;;;;;;;16.88;48.01;101370.06;4972833;28;20607;-73
2022/05/13 08:23:20;;;;;;;6.57;1.88;;;;;;;16.79;48.32;101353.16;4990653;28;20858;-73
2022/05/13 08:25:45;;;;;;;6.90;1.67;;;;;;;16.79;47.90;101353.16;4945454;28;20025;-74
2022/05/13 08:28:11;;;;;;;5.40;1.95;;;;;;;17.05;48.24;101356.72;4956199;28;20011;-73
2022/05/13 08:30:37;;;;;;;8.15;1.92;;;;;;;17.07;47.51;101368.94;4973585;28;20179;-74
2022/05/13 08:33:08;;;;;;;8.60;1.77;;;;;;;17.14;48.37;101377.13;4975700;28;20341;-72
2022/05/13 08:35:34;;;;;;;6.30;1.85;;;;;;;17.19;47.37;101365.94;4993703;28;20140;-73
2022/05/13 08:37:59;;;;;;;3.60;1.80;;;;;;;17.30;46.46;101369.16;5009504;28;20023;-74
2022/05/13 08:41:09;;;;;;;1.58;1.30;;;;;;;17.30;46.68;101369.16;4960221;28;20044;-74
2022/05/13 08:43:40;;;;;;;3.05;1.55;;;;;;;17.08;46.54;101367.94;4980672;28;20470;-73
2022/05/13 08:46:21;;;;;;;7.28;1.85;;;;;;;17.44;47.31;101378.34;5014987;28;20121;-73
2022/05/13 08:48:55;;;;;;;6.13;2.00;;;;;;;17.53;45.52;101379.19;4980269;28;20113;-74
2022/05/13 08:51:32;;;;;;;;;;;;;;;17.43;45.86;101368.66;4981890;28;20040;-75
2022/05/13 08:54:14;;;;;;;3.83;1.75;;;;;;;17.65;45.67;101372.50;5000908;27;20125;-74
2022/05/13 08:56:39;;;;;;;4.68;1.80;;;;;;;17.69;45.41;101371.13;4980416;28;20036;-74
2022/05/13 08:59:11;;;;;;;6.70;1.60;;;;;;;17.77;45.96;101374.84;4980464;28;20017;-73
2022/05/13 09:01:46;;;;;;;6.40;1.85;;;;;;;17.90;45.75;101377.00;4964291;28;20025;-73
2022/05/13 09:04:24;;;;;;;4.82;1.80;;;;;;;18.11;44.61;101374.63;4981123;28;20144;-74
2022/05/13 09:06:52;;;;;;;3.85;1.80;;;;;;;18.15;44.44;101384.00;4972610;28;20014;-73
2022/05/13 09:09:17;;;;;;;5.45;1.58;;;;;;;18.23;44.50;101382.28;4940718;28;20019;-74
2022/05/13 09:11:46;;;;;;;8.05;1.52;;;;;;;18.34;43.39;101395.31;4991787;28;20781;-73
2022/05/13 09:14:24;;;;;;;3.45;1.50;;;;;;;18.16;43.74;101374.09;5009495;28;20036;-74
2022/05/13 09:17:27;;;;;;;3.33;1.30;;;;;;;18.39;44.20;101379.56;4974188;28;20007;-74
2022/05/13 09:20:01;;;;;;;3.58;1.30;;;;;;;18.27;42.74;101387.13;4981020;28;20811;-73
2022/05/13 09:22:52;;;;;;;2.80;1.20;;;;;;;18.27;42.55;101383.63;5001144;28;20018;-74
2022/05/13 09:25:36;;;;;;;4.50;1.40;;;;;;;18.33;43.60;101373.06;4965652;28;20125;-74
2022/05/13 09:28:09;;;;;;;4.50;1.45;;;;;;;18.52;43.92;101374.50;4979701;28;20006;-73
2022/05/13 09:30:36;;;;;;;3.67;1.30;;;;;;;18.65;43.21;101375.78;4948727;28;20028;-74
2022/05/13 09:33:38;;;;;;;3.10;1.17;;;;;;;18.58;41.96;101382.84;4979468;28;20578;-74
2022/05/13 09:36:06;;;;;;;2.63;1.20;;;;;;;18.98;42.02;101381.00;4861969;28;20025;-73
2022/05/13 09:38:43;;;;;;;3.97;1.40;;;;;;;18.88;40.49;101378.53;4965103;28;20083;-74
2022/05/13 09:41:10;;;;;;;4.28;1.45;;;;;;;19.02;40.79;101379.63;4964235;28;20226;-74
2022/05/13 09:43:44;;;;;;;3.70;1.50;;;;;;;19.60;40.47;101373.84;4979574;28;20132;-74
2022/05/13 09:46:11;;;;;;;1.90;1.20;;;;;;;19.74;39.82;101390.00;4981835;28;20026;-74
2022/05/13 09:48:50;;;;;;;7.93;1.52;;;;;;;19.08;40.58;101386.13;4964778;28;20919;-74
2022/05/13 09:51:25;;;;;;;4.22;1.52;;;;;;;19.33;40.80;101379.59;4988482;28;20788;-74
2022/05/13 09:54:26;;;;;;;3.28;1.10;;;;;;;19.68;39.93;101368.41;4991162;28;20054;-74
2022/05/13 09:57:29;;;;;;;2.15;1.00;;;;;;;20.56;38.84;101369.50;4988908;28;20040;-74
2022/05/13 10:00:15;;;;;;;14.30;1.42;;;;;;;20.82;37.32;101378.13;5026126;28;20999;-74
2022/05/13 10:02:45;;;;;;;1.45;0.80;;;;;;;21.20;36.11;101365.28;4985004;28;20079;-74
2022/05/13 10:05:24;;;;;;;2.95;1.15;;;;;;;21.38;35.90;101364.00;4990441;28;20017;-74
2022/05/13 10:07:52;;;;;;;2.72;1.17;;;;;;;21.01;36.17;101369.44;5004745;28;20137;-74
2022/05/13 10:16:28;;;;;;;3.47;1.13;;;;;;;22.12;35.17;101370.78;4983840;28;20152;-73
2022/05/13 10:19:11;;;;;;;1.95;1.00;;;;;;;20.89;35.81;101366.41;4993887;28;20780;-74
2022/05/13 10:22:04;;;;;;;2.17;1.03;;;;;;;20.24;36.01;101376.94;4987251;28;20465;-73
2022/05/13 10:25:03;;;;;;;3.28;1.45;;;;;;;20.69;35.66;101371.56;5013376;28;20044;-74
2022/05/13 10:28:10;;;;;;;1.88;1.02;;;;;;;20.73;35.47;101374.72;4977485;28;20793;-73
2022/05/13 10:30:49;;;;;;;4.28;1.00;;;;;;;19.95;36.98;101376.91;4948259;28;20892;-73
2022/05/13 10:33:19;;;;;;;2.40;1.10;;;;;;;19.90;38.34;101380.97;4935569;28;20179;-73
2022/05/13 10:36:09;;;;;;;2.40;0.95;;;;;;;20.01;37.62;101382.41;4959897;28;20412;-73
2022/05/13 10:38:55;;;;;;;3.10;0.95;;;;;;;19.63;37.01;101387.75;4976467;28;20045;-73
2022/05/13 10:41:32;;;;;;;1.80;1.10;;;;;;;19.55;38.33;101388.66;4956295;28;20894;-73
2022/05/13 10:44:16;;;;;;;1.35;1.10;;;;;;;19.08;38.86;101383.44;4967506;28;20014;-73
2022/05/13 10:46:45;;;;;;;1.95;1.00;;;;;;;19.34;39.52;101377.75;4982734;28;20083;-73
2022/05/13 10:49:11;;;;;;;1.20;0.98;;;;;;;19.67;38.16;101393.59;4951049;28;20090;-73
2022/05/13 10:52:01;;;;;;;2.08;1.10;;;;;;;19.66;38.56;101379.34;4936898;28;20018;-73
2022/05/13 10:54:43;;;;;;;2.28;0.75;;;;;;;19.84;37.20;101376.34;4978956;28;20022;-73
2022/05/13 10:57:38;;;;;;;2.28;1.00;;;;;;;20.72;36.22;101379.25;4956274;28;20254;-74
2022/05/13 11:00:19;;;;;;;2.28;1.30;;;;;;;21.55;34.20;101384.25;4974889;28;20006;-73
2022/05/13 11:03:25;;;;;;;1.85;1.30;;;;;;;22.83;33.86;101369.69;4975751;28;20006;-74
2022/05/13 11:06:00;;;;;;;1.25;1.05;;;;;;;23.02;32.53;101375.34;4907418;28;20028;-74
2022/05/13 11:08:33;;;;;;;2.15;1.05;;;;;;;23.07;31.96;101386.34;4971108;28;20014;-74
2022/05/13 11:11:22;;;;;;;3.53;1.20;;;;;;;22.45;31.66;101375.56;4984126;28;20511;-74
2022/05/13 11:14:14;;;;;;;3.15;1.23;;;;;;;21.52;33.90;101384.66;4996709;28;20005;-74
2022/05/13 11:17:06;;;;;;;1.40;1.00;;;;;;;20.42;35.34;101390.00;4979820;28;20028;-74
2022/05/13 11:19:37;;;;;;;3.08;0.93;;;;;;;20.34;35.44;101382.03;4967883;28;20090;-74
2022/05/13 11:22:05;;;;;;;4.00;1.35;;;;;;;20.52;35.41;101381.66;4974586;28;20020;-74
2022/05/13 11:27:33;;;;;;;3.80;1.85;;;;;;;20.49;35.95;101371.28;5014329;28;20388;-74
2022/05/13 11:30:12;;;;;;;6.43;1.00;;;;;;;20.81;36.57;101379.13;4962007;28;20021;-74
2022/05/13 11:32:57;;;;;;;1.60;0.93;;;;;;;20.72;34.35;101387.31;4967276;28;20633;-73
2022/05/13 11:35:44;;;;;;;3.10;0.75;;;;;;;20.87;34.82;101387.28;4991737;28;20083;-74
2022/05/13 11:38:19;;;;;;;1.15;0.95;;;;;;;20.85;34.54;101378.56;4963925;28;20021;-73
2022/05/13 11:41:08;;;;;;;1.58;0.80;;;;;;;20.48;35.79;101383.03;4966489;28;20117;-74
2022/05/13 11:43:43;;;;;;;1.40;0.80;;;;;;;20.65;35.53;101382.84;4972013;28;20022;-73
2022/05/13 11:46:14;;;;;;;4.13;1.20;;;;;;;21.26;35.86;101393.28;5003874;28;21019;-73
2022/05/13 11:48:44;;;;;;;1.80;0.95;;;;;;;22.21;34.53;101385.78;5006005;28;20030;-74
2022/05/13 11:51:11;;;;;;;2.78;1.00;;;;;;;22.21;33.18;101383.09;4959016;28;20502;-74
2022/05/13 11:53:51;;;;;;;4.20;1.77;;;;;;;22.39;33.91;101384.44;4967143;28;20025;-74
2022/05/13 11:56:26;;;;;;;2.28;0.90;;;;;;;21.78;33.88;101389.41;4987626;28;20018;-75
2022/05/13 11:59:04;;;;;;;2.22;1.10;;;;;;;21.27;35.68;101379.63;4970589;28;20510;-73
2022/05/13 12:01:36;;;;;;;1.45;0.93;;;;;;;21.91;34.29;101386.00;4981865;28;20093;-74
2022/05/13 12:04:13;;;;;;;4.43;1.30;;;;;;;23.08;32.95;101378.03;5006607;28;20091;-74
2022/05/13 12:06:51;;;;;;;2.45;1.20;;;;;;;23.54;31.62;101381.06;4986985;28;20007;-74